Time;durP1;ratioP1;P1;durP2;ratioP2;P2;SDS_P1;SDS_P2;PMS_P1;PMS_P2;Temp;Humidity;BMP_temperature;BMP_pressure;BME280_temperature;BME280_humidity;BME280_pressure;Samples;Min_cycle;Max_cycle;Signal;HPM_P1;HPM_P2
2023/01/10 00:05:51;;;;;;;17.92;4.97;;;;;;;;;;20925846;28;20048;-77
2023/01/10 00:15:54;;;;;;;9.77;2.78;;;;;;;;;;20923182;28;20053;-70
2023/01/10 00:25:57;;;;;;;5.60;2.25;;;;;;;;;;20923290;28;20120;-78
2023/01/10 00:36:00;;;;;;;4.20;1.88;;;;;;;;;;20922866;28;20416;-77
2023/01/10 00:46:02;;;;;;;7.88;2.38;;;;;;;;;;20923707;28;20079;-77
2023/01/10 00:56:04;;;;;;;4.40;1.73;;;;;;;;;;20920465;28;20057;-74
2023/01/10 01:06:07;;;;;;;6.55;1.90;;;;;;;;;;20919562;28;20053;-76
2023/01/10 01:16:09;;;;;;;4.60;1.75;;;;;;;;;;20920228;28;20057;-78
2023/01/10 01:26:11;;;;;;;3.92;1.67;;;;;;;;;;20919187;28;20045;-58
2023/01/10 01:36:14;;;;;;;5.53;1.90;;;;;;;;;;20917836;28;20051;-61
2023/01/10 01:46:16;;;;;;;4.78;1.77;;;;;;;;;;20917627;28;20521;-64
2023/01/10 01:56:20;;;;;;;5.43;1.85;;;;;;;;;;20916482;28;20056;-74
2023/01/10 02:06:23;;;;;;;5.97;1.73;;;;;;;;;;20915956;28;20045;-69
2023/01/10 02:16:26;;;;;;;4.03;1.65;;;;;;;;;;20913929;28;20048;-60
2023/01/10 02:26:38;;;;;;;7.30;1.40;;;;;;;;;;20914416;28;20053;-70
2023/01/10 02:37:00;;;;;;;3.63;1.60;;;;;;;;;;20897250;28;20045;-65
2023/01/10 02:47:07;;;;;;;5.80;1.65;;;;;;;;;;20914218;28;20500;-65
2023/01/10 02:57:30;;;;;;;4.10;1.65;;;;;;;;;;20913914;28;20481;-73
2023/01/10 03:07:37;;;;;;;4.15;2.13;;;;;;;;;;20912710;28;20114;-67
2023/01/10 03:17:45;;;;;;;3.07;1.37;;;;;;;;;;20911929;28;20071;-78
2023/01/10 03:27:54;;;;;;;4.85;1.92;;;;;;;;;;20919422;28;20400;-78
2023/01/10 03:38:01;;;;;;;5.22;1.50;;;;;;;;;;20927724;28;20045;-71
2023/01/10 03:48:04;;;;;;;7.85;1.60;;;;;;;;;;20927540;28;20072;-77
2023/01/10 03:58:07;;;;;;;4.57;1.67;;;;;;;;;;20927314;28;20045;-79
2023/01/10 04:08:10;;;;;;;6.90;2.10;;;;;;;;;;20925730;28;20087;-59
2023/01/10 04:18:14;;;;;;;5.38;2.40;;;;;;;;;;20923730;28;20045;-62
2023/01/10 04:28:19;;;;;;;9.02;2.03;;;;;;;;;;20924016;28;20061;-62
2023/01/10 04:38:22;;;;;;;5.22;2.30;;;;;;;;;;20923410;28;20078;-61
2023/01/10 04:48:25;;;;;;;4.78;2.15;;;;;;;;;;20922869;28;20148;-58
2023/01/10 04:58:28;;;;;;;4.75;1.98;;;;;;;;;;20922134;28;20049;-58
2023/01/10 05:08:29;;;;;;;4.00;1.63;;;;;;;;;;20921167;28;20045;-61
2023/01/10 05:18:31;;;;;;;5.07;1.92;;;;;;;;;;20920178;28;20516;-62
2023/01/10 05:28:33;;;;;;;3.42;1.90;;;;;;;;;;20901439;28;20084;-61
2023/01/10 05:38:35;;;;;;;4.50;2.03;;;;;;;;;;20919267;28;20447;-63
2023/01/10 05:48:37;;;;;;;3.72;1.60;;;;;;;;;;20918898;28;20056;-63
2023/01/10 05:58:38;;;;;;;4.57;2.03;;;;;;;;;;20917201;28;20566;-60
2023/01/10 06:08:40;;;;;;;6.18;1.50;;;;;;;;;;20916830;28;20053;-58
2023/01/10 06:18:47;;;;;;;7.15;2.10;;;;;;;;;;20915326;28;20048;-59
2023/01/10 06:28:50;;;;;;;5.65;1.75;;;;;;;;;;20914700;28;20059;-66
2023/01/10 06:38:53;;;;;;;4.18;1.80;;;;;;;;;;20930075;28;20058;-61
2023/01/10 06:48:55;;;;;;;5.18;2.40;;;;;;;;;;20922325;28;20080;-71
2023/01/10 06:58:58;;;;;;;7.95;2.38;;;;;;;;;;20917359;28;20063;-58
2023/01/10 07:09:00;;;;;;;3.80;2.10;;;;;;;;;;20930844;28;20053;-72
2023/01/10 07:19:02;;;;;;;5.55;1.80;;;;;;;;;;20928546;28;20049;-69
2023/01/10 07:29:05;;;;;;;4.55;2.20;;;;;;;;;;20928985;28;20547;-69
2023/01/10 07:39:06;;;;;;;5.50;3.22;;;;;;;;;;20929213;28;20048;-59
2023/01/10 07:49:09;;;;;;;8.38;3.10;;;;;;;;;;20926462;28;20064;-70
2023/01/10 07:59:11;;;;;;;7.60;3.28;;;;;;;;;;20926256;28;20418;-69
2023/01/10 08:09:14;;;;;;;17.67;4.18;;;;;;;;;;20925489;28;20053;-74
2023/01/10 08:19:17;;;;;;;9.93;3.95;;;;;;;;;;20923449;28;20052;-72
2023/01/10 08:29:19;;;;;;;6.45;2.83;;;;;;;;;;20906458;28;20150;-67
2023/01/10 08:39:21;;;;;;;9.65;4.10;;;;;;;;;;20922707;28;20052;-71
2023/01/10 08:49:24;;;;;;;15.10;5.53;;;;;;;;;;20922633;28;20137;-71
2023/01/10 08:59:26;;;;;;;7.93;3.58;;;;;;;;;;20922187;28;20128;-67
2023/01/10 09:09:28;;;;;;;9.43;3.15;;;;;;;;;;20896374;28;20052;-75
2023/01/10 09:19:30;;;;;;;9.98;2.95;;;;;;;;;;20907331;28;20053;-74
2023/01/10 09:29:32;;;;;;;5.22;2.50;;;;;;;;;;20883702;28;20049;-66
2023/01/10 09:39:35;;;;;;;13.65;3.75;;;;;;;;;;20854126;28;20045;-62
2023/01/10 09:49:50;;;;;;;13.38;3.85;;;;;;;;;;20850456;28;20042;-64
2023/01/10 09:59:53;;;;;;;12.70;3.70;;;;;;;;;;20848319;28;20041;-66
2023/01/10 10:09:56;;;;;;;10.60;4.20;;;;;;;;;;20859329;28;20144;-57
2023/01/10 10:19:58;;;;;;;20.08;4.85;;;;;;;;;;20898351;28;20057;-62
2023/01/10 10:30:13;;;;;;;11.30;4.60;;;;;;;;;;20914505;28;20127;-65
2023/01/10 10:40:18;;;;;;;23.45;5.65;;;;;;;;;;20899749;28;20045;-70
2023/01/10 10:50:25;;;;;;;20.20;4.22;;;;;;;;;;20893994;28;20105;-71
2023/01/10 11:00:29;;;;;;;16.05;4.43;;;;;;;;;;20913886;28;20049;-61
2023/01/10 11:10:35;;;;;;;13.60;5.75;;;;;;;;;;20911955;28;20075;-67
2023/01/10 11:20:45;;;;;;;24.35;4.93;;;;;;;;;;20910593;28;20456;-68
2023/01/10 11:30:50;;;;;;;18.60;5.60;;;;;;;;;;20912347;28;20069;-70
2023/01/10 11:40:57;;;;;;;12.63;5.03;;;;;;;;;;20911485;28;20049;-71
2023/01/10 11:50:58;;;;;;;14.07;5.82;;;;;;;;;;20920314;28;20080;-60
2023/01/10 12:01:01;;;;;;;11.85;6.10;;;;;;;;;;20925976;28;20479;-61
2023/01/10 12:11:05;;;;;;;15.75;7.82;;;;;;;;;;20925513;28;20048;-63
2023/01/10 12:21:08;;;;;;;18.90;5.53;;;;;;;;;;20922305;28;20081;-60
2023/01/10 12:31:13;;;;;;;15.80;6.93;;;;;;;;;;20922289;28;20115;-74
2023/01/10 12:44:10;;;;;;;18.70;6.72;;;;;;;;;;20904506;28;20411;-64
2023/01/10 12:51:42;;;;;;;14.38;6.50;;;;;;;;;;20921898;28;20049;-65
2023/01/10 13:01:49;;;;;;;15.85;6.05;;;;;;;;;;20918337;28;20040;-76
2023/01/10 13:12:01;;;;;;;14.25;6.05;;;;;;;;;;20920330;28;20056;-65
2023/01/10 13:22:18;;;;;;;14.40;6.40;;;;;;;;;;20919240;28;20074;-63
2023/01/10 13:32:23;;;;;;;16.38;6.95;;;;;;;;;;20918361;28;20102;-61
2023/01/10 13:53:01;;;;;;;22.70;7.50;;;;;;;;;;20916933;28;20147;-61
2023/01/10 14:03:04;;;;;;;15.75;8.00;;;;;;;;;;20916999;28;20075;-62
2023/01/10 14:13:10;;;;;;;20.83;9.90;;;;;;;;;;20914870;28;20053;-61
2023/01/10 14:23:15;;;;;;;18.85;9.23;;;;;;;;;;20915014;28;20060;-61
2023/01/10 14:33:19;;;;;;;20.08;9.93;;;;;;;;;;20915505;28;20060;-61
2023/01/10 14:43:25;;;;;;;21.60;9.15;;;;;;;;;;20915637;28;20407;-61
2023/01/10 14:53:28;;;;;;;21.00;10.50;;;;;;;;;;20914706;28;20049;-62
2023/01/10 15:03:30;;;;;;;12.35;3.20;;;;;;;;;;20914691;28;20444;-62
2023/01/10 15:13:35;;;;;;;6.28;3.17;;;;;;;;;;20911947;28;20045;-63
2023/01/10 15:23:39;;;;;;;11.68;4.45;;;;;;;;;;20918049;28;20527;-61
2023/01/10 15:33:43;;;;;;;10.00;4.38;;;;;;;;;;20928578;28;20095;-62
2023/01/10 15:43:45;;;;;;;18.35;6.55;;;;;;;;;;20927782;28;20045;-61
2023/01/10 15:53:56;;;;;;;16.25;7.25;;;;;;;;;;20926099;28;20536;-62
2023/01/10 16:04:00;;;;;;;16.88;7.35;;;;;;;;;;20921969;28;20480;-70
2023/01/10 16:14:02;;;;;;;17.25;8.68;;;;;;;;;;20921299;28;20071;-68
2023/01/10 16:24:07;;;;;;;17.70;8.05;;;;;;;;;;20922265;28;20057;-64
2023/01/10 16:34:09;;;;;;;18.33;8.32;;;;;;;;;;20920447;28;20088;-63
2023/01/10 16:44:11;;;;;;;17.45;9.68;;;;;;;;;;20921429;28;20060;-68
2023/01/10 16:54:18;;;;;;;14.90;7.68;;;;;;;;;;20921367;28;20132;-77
2023/01/10 17:04:22;;;;;;;16.67;8.60;;;;;;;;;;20918491;28;20056;-65
2023/01/10 17:14:24;;;;;;;16.90;9.27;;;;;;;;;;20919976;28;20053;-64
2023/01/10 17:24:28;;;;;;;12.30;6.15;;;;;;;;;;20918225;28;20130;-64
2023/01/10 17:34:36;;;;;;;8.93;3.95;;;;;;;;;;20897914;28;20082;-64
2023/01/10 17:44:38;;;;;;;5.00;2.35;;;;;;;;;;20913786;28;20052;-61
2023/01/10 17:54:39;;;;;;;7.47;2.90;;;;;;;;;;20913980;28;20056;-65
2023/01/10 18:04:41;;;;;;;5.68;2.50;;;;;;;;;;20941871;28;20048;-64
2023/01/10 18:14:45;;;;;;;6.88;2.60;;;;;;;;;;20994893;28;20059;-63
2023/01/10 18:24:50;;;;;;;9.43;2.42;;;;;;;;;;20975016;28;20053;-61
2023/01/10 18:34:52;;;;;;;6.05;2.65;;;;;;;;;;20991986;28;20048;-63
2023/01/10 18:44:54;;;;;;;5.13;2.65;;;;;;;;;;20992618;28;20087;-69
2023/01/10 18:54:56;;;;;;;3.85;2.95;;;;;;;;;;20991655;28;20059;-64
2023/01/10 19:04:58;;;;;;;8.82;4.10;;;;;;;;;;20944394;28;20117;-62
2023/01/10 19:14:59;;;;;;;8.98;5.57;;;;;;;;;;20912568;28;20065;-63
2023/01/10 19:25:03;;;;;;;7.20;4.30;;;;;;;;;;20913254;28;20123;-61
2023/01/10 19:35:05;;;;;;;6.25;3.10;;;;;;;;;;20912443;28;20361;-63
2023/01/10 19:45:07;;;;;;;4.63;2.67;;;;;;;;;;20911469;28;20064;-61
2023/01/10 19:55:09;;;;;;;5.13;2.70;;;;;;;;;;20911978;28;20527;-63
2023/01/10 20:05:12;;;;;;;4.75;2.83;;;;;;;;;;20893454;28;20318;-62
2023/01/10 20:15:14;;;;;;;3.80;2.17;;;;;;;;;;20922767;28;20060;-64
2023/01/10 20:25:16;;;;;;;5.13;2.30;;;;;;;;;;20924048;28;20049;-62
2023/01/10 20:35:20;;;;;;;3.85;2.00;;;;;;;;;;20923036;28;20056;-62
2023/01/10 20:45:23;;;;;;;3.28;2.15;;;;;;;;;;20923286;28;20079;-64
2023/01/10 20:55:26;;;;;;;5.63;2.55;;;;;;;;;;20922125;28;20049;-64
2023/01/10 21:05:28;;;;;;;5.80;2.70;;;;;;;;;;20921364;28;20128;-65
2023/01/10 21:15:30;;;;;;;4.32;2.88;;;;;;;;;;20919646;28;20559;-61
2023/01/10 21:25:32;;;;;;;5.28;2.83;;;;;;;;;;20919075;28;20056;-60
2023/01/10 21:35:34;;;;;;;5.22;3.30;;;;;;;;;;20918759;28;20053;-61
2023/01/10 21:45:37;;;;;;;5.60;3.58;;;;;;;;;;20918148;28;20460;-62
2023/01/10 21:55:42;;;;;;;5.65;3.38;;;;;;;;;;20917152;28;20510;-62
2023/01/10 22:05:44;;;;;;;5.13;3.90;;;;;;;;;;20916393;28;20129;-64
2023/01/10 22:15:48;;;;;;;7.97;4.35;;;;;;;;;;20914354;28;20053;-61
2023/01/10 22:26:09;;;;;;;7.65;3.85;;;;;;;;;;20915240;28;20412;-63
2023/01/10 22:36:15;;;;;;;6.35;4.03;;;;;;;;;;20914671;28;20056;-62
2023/01/10 22:46:18;;;;;;;5.20;3.42;;;;;;;;;;20914119;28;20045;-61
2023/01/10 22:56:22;;;;;;;5.88;2.80;;;;;;;;;;20914672;28;20091;-62
2023/01/10 23:06:24;;;;;;;5.47;2.70;;;;;;;;;;20912904;28;20473;-61
2023/01/10 23:16:29;;;;;;;3.97;2.13;;;;;;;;;;20911489;28;20049;-61
2023/01/10 23:26:31;;;;;;;3.33;2.30;;;;;;;;;;20911537;28;20049;-63
2023/01/10 23:36:34;;;;;;;3.97;2.60;;;;;;;;;;20911559;28;20136;-61
2023/01/10 23:46:36;;;;;;;4.03;2.03;;;;;;;;;;20920314;28;20049;-62
2023/01/10 23:56:38;;;;;;;2.70;2.10;;;;;;;;;;20926334;28;20056;-63
